sensor_id;sensor_type;location;lat;lon;timestamp;temperature;humidity
23471;DHT22;11908;50.806;4.424;2024-01-11T00:00:13;-4.00;99.90
23471;DHT22;11908;50.806;4.424;2024-01-11T00:02:38;-4.00;99.90
23471;DHT22;11908;50.806;4.424;2024-01-11T00:05:04;-4.10;99.90
23471;DHT22;11908;50.806;4.424;2024-01-11T00:07:30;-4.10;99.90
23471;DHT22;11908;50.806;4.424;2024-01-11T00:09:56;-4.00;99.90
23471;DHT22;11908;50.806;4.424;2024-01-11T00:12:22;-4.00;99.90
23471;DHT22;11908;50.806;4.424;2024-01-11T00:14:47;-4.00;99.90
23471;DHT22;11908;50.806;4.424;2024-01-11T00:17:13;-4.00;99.90
23471;DHT22;11908;50.806;4.424;2024-01-11T00:19:38;-4.00;99.90
23471;DHT22;11908;50.806;4.424;2024-01-11T00:22:04;-4.00;99.90
23471;DHT22;11908;50.806;4.424;2024-01-11T00:24:30;-4.00;99.90
23471;DHT22;11908;50.806;4.424;2024-01-11T00:26:56;-4.00;99.90
23471;DHT22;11908;50.806;4.424;2024-01-11T00:29:21;-4.00;99.90
23471;DHT22;11908;50.806;4.424;2024-01-11T00:31:47;-4.00;99.90
23471;DHT22;11908;50.806;4.424;2024-01-11T00:34:13;-4.00;99.90
23471;DHT22;11908;50.806;4.424;2024-01-11T00:36:38;-4.00;99.90
23471;DHT22;11908;50.806;4.424;2024-01-11T00:39:04;-4.10;99.90
23471;DHT22;11908;50.806;4.424;2024-01-11T00:41:30;-4.10;99.90
23471;DHT22;11908;50.806;4.424;2024-01-11T00:43:55;-4.10;99.90
23471;DHT22;11908;50.806;4.424;2024-01-11T00:46:21;-4.10;99.90
23471;DHT22;11908;50.806;4.424;2024-01-11T00:48:47;-4.10;99.90
23471;DHT22;11908;50.806;4.424;2024-01-11T00:51:12;-4.10;99.90
23471;DHT22;11908;50.806;4.424;2024-01-11T00:53:38;-4.20;99.90
23471;DHT22;11908;50.806;4.424;2024-01-11T00:56:04;-4.20;99.90
23471;DHT22;11908;50.806;4.424;2024-01-11T00:58:29;-4.20;99.90
23471;DHT22;11908;50.806;4.424;2024-01-11T01:00:55;-4.30;99.90
23471;DHT22;11908;50.806;4.424;2024-01-11T01:03:21;-4.30;99.90
23471;DHT22;11908;50.806;4.424;2024-01-11T01:05:47;-4.30;99.90
23471;DHT22;11908;50.806;4.424;2024-01-11T01:08:13;-4.30;99.90
23471;DHT22;11908;50.806;4.424;2024-01-11T01:10:39;-4.20;99.90
23471;DHT22;11908;50.806;4.424;2024-01-11T01:13:04;-4.10;99.90
23471;DHT22;11908;50.806;4.424;2024-01-11T01:15:30;-4.20;99.90
23471;DHT22;11908;50.806;4.424;2024-01-11T01:17:56;-4.20;99.90
23471;DHT22;11908;50.806;4.424;2024-01-11T01:20:22;-4.30;99.90
23471;DHT22;11908;50.806;4.424;2024-01-11T01:22:49;-4.30;99.90
23471;DHT22;11908;50.806;4.424;2024-01-11T01:25:14;-4.30;99.90
23471;DHT22;11908;50.806;4.424;2024-01-11T01:27:40;-4.30;99.90
23471;DHT22;11908;50.806;4.424;2024-01-11T01:30:06;-4.40;99.90
23471;DHT22;11908;50.806;4.424;2024-01-11T01:32:32;-4.30;99.90
23471;DHT22;11908;50.806;4.424;2024-01-11T01:34:58;-4.30;99.90
23471;DHT22;11908;50.806;4.424;2024-01-11T01:37:23;-4.20;99.90
23471;DHT22;11908;50.806;4.424;2024-01-11T01:39:49;-4.10;99.90
23471;DHT22;11908;50.806;4.424;2024-01-11T01:42:15;-4.10;99.90
23471;DHT22;11908;50.806;4.424;2024-01-11T01:44:40;-4.20;99.90
23471;DHT22;11908;50.806;4.424;2024-01-11T01:47:07;-4.10;99.90
23471;DHT22;11908;50.806;4.424;2024-01-11T01:49:35;-4.10;99.90
23471;DHT22;11908;50.806;4.424;2024-01-11T01:52:03;-4.20;99.90
23471;DHT22;11908;50.806;4.424;2024-01-11T01:54:29;-4.10;99.90
23471;DHT22;11908;50.806;4.424;2024-01-11T01:56:56;-4.20;99.90
23471;DHT22;11908;50.806;4.424;2024-01-11T01:59:24;-4.10;99.90
23471;DHT22;11908;50.806;4.424;2024-01-11T02:01:51;-4.10;99.90
23471;DHT22;11908;50.806;4.424;2024-01-11T02:04:17;-4.10;99.90
23471;DHT22;11908;50.806;4.424;2024-01-11T02:06:45;-4.10;99.90
23471;DHT22;11908;50.806;4.424;2024-01-11T02:09:13;-4.00;99.90
23471;DHT22;11908;50.806;4.424;2024-01-11T02:11:39;-4.00;99.90
23471;DHT22;11908;50.806;4.424;2024-01-11T02:14:07;-4.10;99.90
23471;DHT22;11908;50.806;4.424;2024-01-11T02:16:33;-4.10;99.90
23471;DHT22;11908;50.806;4.424;2024-01-11T02:18:58;-4.30;99.90
23471;DHT22;11908;50.806;4.424;2024-01-11T02:21:25;-4.40;99.90
23471;DHT22;11908;50.806;4.424;2024-01-11T02:24:06;-4.40;99.90
23471;DHT22;11908;50.806;4.424;2024-01-11T02:26:32;-4.50;99.90
23471;DHT22;11908;50.806;4.424;2024-01-11T02:28:58;-4.40;99.90
23471;DHT22;11908;50.806;4.424;2024-01-11T02:31:24;-4.40;99.90
23471;DHT22;11908;50.806;4.424;2024-01-11T02:33:54;-4.40;99.90
23471;DHT22;11908;50.806;4.424;2024-01-11T02:36:21;-4.40;99.90
23471;DHT22;11908;50.806;4.424;2024-01-11T02:38:48;-4.40;99.90
23471;DHT22;11908;50.806;4.424;2024-01-11T02:41:16;-4.30;99.90
23471;DHT22;11908;50.806;4.424;2024-01-11T02:43:47;-4.20;99.90
23471;DHT22;11908;50.806;4.424;2024-01-11T02:46:14;-4.10;99.90
23471;DHT22;11908;50.806;4.424;2024-01-11T02:48:40;-4.20;99.90
23471;DHT22;11908;50.806;4.424;2024-01-11T02:51:06;-4.30;99.90
23471;DHT22;11908;50.806;4.424;2024-01-11T02:53:32;-4.30;99.90
23471;DHT22;11908;50.806;4.424;2024-01-11T02:56:00;-4.20;99.90
23471;DHT22;11908;50.806;4.424;2024-01-11T02:58:26;-4.20;99.90
23471;DHT22;11908;50.806;4.424;2024-01-11T03:00:52;-4.20;99.90
23471;DHT22;11908;50.806;4.424;2024-01-11T03:03:17;-4.20;99.90
23471;DHT22;11908;50.806;4.424;2024-01-11T03:05:43;-4.30;99.90
23471;DHT22;11908;50.806;4.424;2024-01-11T03:08:08;-4.30;99.90
23471;DHT22;11908;50.806;4.424;2024-01-11T03:10:37;-4.20;99.90
23471;DHT22;11908;50.806;4.424;2024-01-11T03:13:05;-4.20;99.90
23471;DHT22;11908;50.806;4.424;2024-01-11T03:15:30;-4.30;99.90
23471;DHT22;11908;50.806;4.424;2024-01-11T03:17:56;-4.30;99.90
23471;DHT22;11908;50.806;4.424;2024-01-11T03:20:22;-4.30;99.90
23471;DHT22;11908;50.806;4.424;2024-01-11T03:22:53;-4.30;99.90
23471;DHT22;11908;50.806;4.424;2024-01-11T03:25:19;-4.30;99.90
23471;DHT22;11908;50.806;4.424;2024-01-11T03:27:45;-4.30;99.90
23471;DHT22;11908;50.806;4.424;2024-01-11T03:30:12;-4.30;99.90
23471;DHT22;11908;50.806;4.424;2024-01-11T03:32:38;-4.20;99.90
23471;DHT22;11908;50.806;4.424;2024-01-11T03:35:08;-4.20;99.90
23471;DHT22;11908;50.806;4.424;2024-01-11T03:37:35;-4.30;99.90
23471;DHT22;11908;50.806;4.424;2024-01-11T03:40:02;-4.30;99.90
23471;DHT22;11908;50.806;4.424;2024-01-11T03:42:28;-4.30;99.90
23471;DHT22;11908;50.806;4.424;2024-01-11T03:44:53;-4.30;99.90
23471;DHT22;11908;50.806;4.424;2024-01-11T03:47:19;-4.30;99.90
23471;DHT22;11908;50.806;4.424;2024-01-11T03:49:45;-4.30;99.90
23471;DHT22;11908;50.806;4.424;2024-01-11T03:52:11;-4.40;99.90
23471;DHT22;11908;50.806;4.424;2024-01-11T03:54:36;-4.40;99.90
23471;DHT22;11908;50.806;4.424;2024-01-11T03:57:02;-4.50;99.90
23471;DHT22;11908;50.806;4.424;2024-01-11T03:59:28;-4.60;99.90
23471;DHT22;11908;50.806;4.424;2024-01-11T04:01:53;-4.60;99.90
23471;DHT22;11908;50.806;4.424;2024-01-11T04:04:19;-4.60;99.90
23471;DHT22;11908;50.806;4.424;2024-01-11T04:06:45;-4.60;99.90
23471;DHT22;11908;50.806;4.424;2024-01-11T04:09:11;-4.70;99.90
23471;DHT22;11908;50.806;4.424;2024-01-11T04:11:37;-4.70;99.90
23471;DHT22;11908;50.806;4.424;2024-01-11T04:14:02;-4.70;99.90
23471;DHT22;11908;50.806;4.424;2024-01-11T04:16:28;-4.70;99.90
23471;DHT22;11908;50.806;4.424;2024-01-11T04:18:54;-4.80;99.90
23471;DHT22;11908;50.806;4.424;2024-01-11T04:21:24;-4.70;99.90
23471;DHT22;11908;50.806;4.424;2024-01-11T04:23:50;-4.60;99.90
23471;DHT22;11908;50.806;4.424;2024-01-11T04:26:16;-4.40;99.90
23471;DHT22;11908;50.806;4.424;2024-01-11T04:28:44;-4.60;99.90
23471;DHT22;11908;50.806;4.424;2024-01-11T04:31:10;-4.70;99.90
23471;DHT22;11908;50.806;4.424;2024-01-11T04:33:35;-4.80;99.90
23471;DHT22;11908;50.806;4.424;2024-01-11T04:36:01;-4.80;99.90
23471;DHT22;11908;50.806;4.424;2024-01-11T04:38:27;-4.80;99.90
23471;DHT22;11908;50.806;4.424;2024-01-11T04:40:52;-4.90;99.90
23471;DHT22;11908;50.806;4.424;2024-01-11T04:43:18;-4.90;99.90
23471;DHT22;11908;50.806;4.424;2024-01-11T04:45:43;-5.00;99.90
23471;DHT22;11908;50.806;4.424;2024-01-11T04:48:09;-5.00;99.90
23471;DHT22;11908;50.806;4.424;2024-01-11T04:50:35;-4.90;99.90
23471;DHT22;11908;50.806;4.424;2024-01-11T04:53:00;-5.00;99.90
23471;DHT22;11908;50.806;4.424;2024-01-11T04:55:26;-5.00;99.90
23471;DHT22;11908;50.806;4.424;2024-01-11T04:57:52;-5.00;99.90
23471;DHT22;11908;50.806;4.424;2024-01-11T05:00:18;-4.90;99.90
23471;DHT22;11908;50.806;4.424;2024-01-11T05:02:43;-4.80;99.90
23471;DHT22;11908;50.806;4.424;2024-01-11T05:05:09;-4.80;99.90
23471;DHT22;11908;50.806;4.424;2024-01-11T05:07:35;-4.80;99.90
23471;DHT22;11908;50.806;4.424;2024-01-11T05:10:00;-4.80;99.90
23471;DHT22;11908;50.806;4.424;2024-01-11T05:12:26;-4.80;99.90
23471;DHT22;11908;50.806;4.424;2024-01-11T05:14:52;-4.70;99.90
23471;DHT22;11908;50.806;4.424;2024-01-11T05:17:17;-4.80;99.90
23471;DHT22;11908;50.806;4.424;2024-01-11T05:19:43;-4.80;99.90
23471;DHT22;11908;50.806;4.424;2024-01-11T05:22:09;-4.70;99.90
23471;DHT22;11908;50.806;4.424;2024-01-11T05:24:34;-4.60;99.90
23471;DHT22;11908;50.806;4.424;2024-01-11T05:27:00;-4.60;99.90
23471;DHT22;11908;50.806;4.424;2024-01-11T05:29:26;-4.60;99.90
23471;DHT22;11908;50.806;4.424;2024-01-11T05:31:52;-4.60;99.90
23471;DHT22;11908;50.806;4.424;2024-01-11T05:34:17;-4.60;99.90
23471;DHT22;11908;50.806;4.424;2024-01-11T05:36:43;-4.50;99.90
23471;DHT22;11908;50.806;4.424;2024-01-11T05:39:08;-4.40;99.90
23471;DHT22;11908;50.806;4.424;2024-01-11T05:41:34;-4.30;99.90
23471;DHT22;11908;50.806;4.424;2024-01-11T05:44:00;-4.30;99.90
23471;DHT22;11908;50.806;4.424;2024-01-11T05:46:26;-4.40;99.90
23471;DHT22;11908;50.806;4.424;2024-01-11T05:48:52;-4.50;99.90
23471;DHT22;11908;50.806;4.424;2024-01-11T05:51:18;-4.50;99.90
23471;DHT22;11908;50.806;4.424;2024-01-11T05:53:43;-4.50;99.90
23471;DHT22;11908;50.806;4.424;2024-01-11T05:56:10;-4.60;99.90
23471;DHT22;11908;50.806;4.424;2024-01-11T05:58:36;-4.50;99.90
23471;DHT22;11908;50.806;4.424;2024-01-11T06:01:04;-4.40;99.90
23471;DHT22;11908;50.806;4.424;2024-01-11T06:03:30;-4.40;99.90
23471;DHT22;11908;50.806;4.424;2024-01-11T06:06:00;-4.40;99.90
23471;DHT22;11908;50.806;4.424;2024-01-11T06:08:25;-4.40;99.90
23471;DHT22;11908;50.806;4.424;2024-01-11T06:10:52;-4.40;99.90
23471;DHT22;11908;50.806;4.424;2024-01-11T06:13:17;-4.50;99.90
23471;DHT22;11908;50.806;4.424;2024-01-11T06:15:44;-4.60;99.90
23471;DHT22;11908;50.806;4.424;2024-01-11T06:18:09;-4.60;99.90
23471;DHT22;11908;50.806;4.424;2024-01-11T06:20:35;-4.50;99.90
23471;DHT22;11908;50.806;4.424;2024-01-11T06:23:01;-4.50;99.90
23471;DHT22;11908;50.806;4.424;2024-01-11T06:25:27;-4.50;99.90
23471;DHT22;11908;50.806;4.424;2024-01-11T06:27:53;-4.50;99.90
23471;DHT22;11908;50.806;4.424;2024-01-11T06:30:20;-4.50;99.90
23471;DHT22;11908;50.806;4.424;2024-01-11T06:32:45;-4.60;99.90
23471;DHT22;11908;50.806;4.424;2024-01-11T06:35:11;-4.60;99.90
23471;DHT22;11908;50.806;4.424;2024-01-11T06:37:37;-4.60;99.90
23471;DHT22;11908;50.806;4.424;2024-01-11T06:40:03;-4.60;99.90
23471;DHT22;11908;50.806;4.424;2024-01-11T06:42:30;-4.70;99.90
23471;DHT22;11908;50.806;4.424;2024-01-11T06:44:56;-4.60;99.90
23471;DHT22;11908;50.806;4.424;2024-01-11T06:47:21;-4.60;99.90
23471;DHT22;11908;50.806;4.424;2024-01-11T06:49:47;-4.60;99.90
23471;DHT22;11908;50.806;4.424;2024-01-11T06:52:13;-4.50;99.90
23471;DHT22;11908;50.806;4.424;2024-01-11T06:54:39;-4.50;99.90
23471;DHT22;11908;50.806;4.424;2024-01-11T06:57:05;-4.50;99.90
23471;DHT22;11908;50.806;4.424;2024-01-11T06:59:31;-4.60;99.90
23471;DHT22;11908;50.806;4.424;2024-01-11T07:01:57;-4.60;99.90
23471;DHT22;11908;50.806;4.424;2024-01-11T07:04:23;-4.60;99.90
23471;DHT22;11908;50.806;4.424;2024-01-11T07:06:48;-4.50;99.90
23471;DHT22;11908;50.806;4.424;2024-01-11T07:09:14;-4.60;99.90
23471;DHT22;11908;50.806;4.424;2024-01-11T07:11:42;-4.60;99.90
23471;DHT22;11908;50.806;4.424;2024-01-11T07:14:07;-4.60;99.90
23471;DHT22;11908;50.806;4.424;2024-01-11T07:16:33;-4.60;99.90
23471;DHT22;11908;50.806;4.424;2024-01-11T07:18:59;-4.70;99.90
23471;DHT22;11908;50.806;4.424;2024-01-11T07:21:24;-4.60;99.90
23471;DHT22;11908;50.806;4.424;2024-01-11T07:24:00;-4.60;99.90
23471;DHT22;11908;50.806;4.424;2024-01-11T07:26:26;-4.60;99.90
23471;DHT22;11908;50.806;4.424;2024-01-11T07:28:52;-4.60;99.90
23471;DHT22;11908;50.806;4.424;2024-01-11T07:31:20;-4.60;99.90
23471;DHT22;11908;50.806;4.424;2024-01-11T07:33:46;-4.70;99.90
23471;DHT22;11908;50.806;4.424;2024-01-11T07:36:11;-4.80;99.90
23471;DHT22;11908;50.806;4.424;2024-01-11T07:38:37;-4.80;99.90
23471;DHT22;11908;50.806;4.424;2024-01-11T07:41:03;-4.80;99.90
23471;DHT22;11908;50.806;4.424;2024-01-11T07:43:29;-4.70;99.90
23471;DHT22;11908;50.806;4.424;2024-01-11T07:45:55;-4.60;99.90
23471;DHT22;11908;50.806;4.424;2024-01-11T07:48:23;-4.70;99.90
23471;DHT22;11908;50.806;4.424;2024-01-11T07:50:49;-4.70;99.90
23471;DHT22;11908;50.806;4.424;2024-01-11T07:53:15;-4.70;99.90
23471;DHT22;11908;50.806;4.424;2024-01-11T07:55:41;-4.70;99.90
23471;DHT22;11908;50.806;4.424;2024-01-11T07:58:07;-4.70;99.90
23471;DHT22;11908;50.806;4.424;2024-01-11T08:00:33;-4.70;99.90
23471;DHT22;11908;50.806;4.424;2024-01-11T08:02:59;-4.60;99.90
23471;DHT22;11908;50.806;4.424;2024-01-11T08:05:25;-4.70;99.90
23471;DHT22;11908;50.806;4.424;2024-01-11T08:07:51;-4.70;99.90
23471;DHT22;11908;50.806;4.424;2024-01-11T08:10:17;-4.70;99.90
23471;DHT22;11908;50.806;4.424;2024-01-11T08:12:43;-4.60;99.90
23471;DHT22;11908;50.806;4.424;2024-01-11T08:15:09;-4.60;99.90
23471;DHT22;11908;50.806;4.424;2024-01-11T08:17:44;-4.60;99.90
23471;DHT22;11908;50.806;4.424;2024-01-11T08:20:11;-4.50;99.90
23471;DHT22;11908;50.806;4.424;2024-01-11T08:22:40;-4.50;99.90
23471;DHT22;11908;50.806;4.424;2024-01-11T08:25:07;-4.50;99.90
23471;DHT22;11908;50.806;4.424;2024-01-11T08:27:32;-4.40;99.90
23471;DHT22;11908;50.806;4.424;2024-01-11T08:29:59;-4.40;99.90
23471;DHT22;11908;50.806;4.424;2024-01-11T08:32:25;-4.40;99.90
23471;DHT22;11908;50.806;4.424;2024-01-11T08:34:51;-4.30;99.90
23471;DHT22;11908;50.806;4.424;2024-01-11T08:37:17;-4.20;99.90
23471;DHT22;11908;50.806;4.424;2024-01-11T08:39:43;-4.10;99.90
23471;DHT22;11908;50.806;4.424;2024-01-11T08:42:09;-4.10;99.90
23471;DHT22;11908;50.806;4.424;2024-01-11T08:44:34;-4.00;99.90
23471;DHT22;11908;50.806;4.424;2024-01-11T08:47:00;-4.00;99.90
23471;DHT22;11908;50.806;4.424;2024-01-11T08:49:27;-3.90;99.90
23471;DHT22;11908;50.806;4.424;2024-01-11T08:51:53;-3.80;99.90
23471;DHT22;11908;50.806;4.424;2024-01-11T08:54:19;-3.70;99.90
23471;DHT22;11908;50.806;4.424;2024-01-11T08:56:46;-3.50;99.90
23471;DHT22;11908;50.806;4.424;2024-01-11T08:59:12;-3.50;99.90
23471;DHT22;11908;50.806;4.424;2024-01-11T09:01:38;-3.30;99.90
23471;DHT22;11908;50.806;4.424;2024-01-11T09:04:05;-3.20;99.90
23471;DHT22;11908;50.806;4.424;2024-01-11T09:06:31;-3.10;99.90
23471;DHT22;11908;50.806;4.424;2024-01-11T09:08:57;-2.90;99.90
23471;DHT22;11908;50.806;4.424;2024-01-11T09:11:23;-2.80;99.90
23471;DHT22;11908;50.806;4.424;2024-01-11T09:13:49;-2.40;99.90
23471;DHT22;11908;50.806;4.424;2024-01-11T09:16:16;-2.10;99.90
23471;DHT22;11908;50.806;4.424;2024-01-11T09:18:43;-1.70;99.90
23471;DHT22;11908;50.806;4.424;2024-01-11T09:21:09;-1.30;99.90
23471;DHT22;11908;50.806;4.424;2024-01-11T09:23:35;-1.40;99.90
23471;DHT22;11908;50.806;4.424;2024-01-11T09:26:01;-1.40;99.90
23471;DHT22;11908;50.806;4.424;2024-01-11T09:28:26;-1.20;99.90
23471;DHT22;11908;50.806;4.424;2024-01-11T09:30:52;-1.40;99.90
23471;DHT22;11908;50.806;4.424;2024-01-11T09:33:18;-1.40;99.90
23471;DHT22;11908;50.806;4.424;2024-01-11T09:35:43;-1.40;99.90
23471;DHT22;11908;50.806;4.424;2024-01-11T09:38:09;-0.90;99.90
23471;DHT22;11908;50.806;4.424;2024-01-11T09:40:36;-0.50;99.90
23471;DHT22;11908;50.806;4.424;2024-01-11T09:43:03;-0.30;99.90
23471;DHT22;11908;50.806;4.424;2024-01-11T09:45:30;-0.20;99.90
23471;DHT22;11908;50.806;4.424;2024-01-11T09:47:56;0.20;99.90
23471;DHT22;11908;50.806;4.424;2024-01-11T09:50:22;0.00;99.90
23471;DHT22;11908;50.806;4.424;2024-01-11T09:52:50;0.00;99.90
23471;DHT22;11908;50.806;4.424;2024-01-11T09:55:19;-0.20;99.90
23471;DHT22;11908;50.806;4.424;2024-01-11T09:57:46;-0.60;99.90
23471;DHT22;11908;50.806;4.424;2024-01-11T10:00:22;-0.70;99.90
23471;DHT22;11908;50.806;4.424;2024-01-11T10:02:49;-0.40;99.90
23471;DHT22;11908;50.806;4.424;2024-01-11T10:05:17;-0.60;99.90
23471;DHT22;11908;50.806;4.424;2024-01-11T10:07:43;-0.50;99.90
23471;DHT22;11908;50.806;4.424;2024-01-11T10:10:09;-0.40;99.90
23471;DHT22;11908;50.806;4.424;2024-01-11T10:12:36;-0.30;99.90
23471;DHT22;11908;50.806;4.424;2024-01-11T10:15:06;-0.10;99.90
23471;DHT22;11908;50.806;4.424;2024-01-11T10:17:45;-0.30;99.90
23471;DHT22;11908;50.806;4.424;2024-01-11T10:20:14;-0.50;99.90
23471;DHT22;11908;50.806;4.424;2024-01-11T10:22:40;-0.20;99.90
23471;DHT22;11908;50.806;4.424;2024-01-11T10:25:15;0.00;99.90
23471;DHT22;11908;50.806;4.424;2024-01-11T10:27:42;0.70;99.90
23471;DHT22;11908;50.806;4.424;2024-01-11T10:30:09;1.10;99.90
23471;DHT22;11908;50.806;4.424;2024-01-11T10:32:35;1.20;99.90
23471;DHT22;11908;50.806;4.424;2024-01-11T10:35:02;1.40;99.90
23471;DHT22;11908;50.806;4.424;2024-01-11T10:37:31;1.30;99.90
23471;DHT22;11908;50.806;4.424;2024-01-11T10:40:05;1.30;99.90
23471;DHT22;11908;50.806;4.424;2024-01-11T10:42:44;1.30;99.90
23471;DHT22;11908;50.806;4.424;2024-01-11T10:45:16;1.60;99.90
23471;DHT22;11908;50.806;4.424;2024-01-11T10:50:44;2.20;99.90
23471;DHT22;11908;50.806;4.424;2024-01-11T10:55:59;3.30;99.90
23471;DHT22;11908;50.806;4.424;2024-01-11T10:58:26;3.40;99.90
23471;DHT22;11908;50.806;4.424;2024-01-11T11:00:54;2.80;99.90
23471;DHT22;11908;50.806;4.424;2024-01-11T11:03:25;3.00;99.90
23471;DHT22;11908;50.806;4.424;2024-01-11T11:05:54;3.00;99.90
23471;DHT22;11908;50.806;4.424;2024-01-11T11:08:23;3.00;99.90
23471;DHT22;11908;50.806;4.424;2024-01-11T11:11:00;2.90;99.90
23471;DHT22;11908;50.806;4.424;2024-01-11T11:13:26;3.10;99.90
23471;DHT22;11908;50.806;4.424;2024-01-11T11:15:53;3.80;99.90
23471;DHT22;11908;50.806;4.424;2024-01-11T11:18:19;4.80;99.90
23471;DHT22;11908;50.806;4.424;2024-01-11T11:20:46;4.50;99.90
23471;DHT22;11908;50.806;4.424;2024-01-11T11:23:15;5.00;99.90
23471;DHT22;11908;50.806;4.424;2024-01-11T11:25:45;5.40;99.90
23471;DHT22;11908;50.806;4.424;2024-01-11T11:28:12;5.60;99.90
23471;DHT22;11908;50.806;4.424;2024-01-11T11:30:38;5.90;99.90
23471;DHT22;11908;50.806;4.424;2024-01-11T11:33:19;6.20;99.90
23471;DHT22;11908;50.806;4.424;2024-01-11T11:35:52;6.30;99.90
23471;DHT22;11908;50.806;4.424;2024-01-11T11:38:26;6.30;99.90
23471;DHT22;11908;50.806;4.424;2024-01-11T11:40:53;6.00;99.90
23471;DHT22;11908;50.806;4.424;2024-01-11T11:43:23;5.80;99.90
23471;DHT22;11908;50.806;4.424;2024-01-11T11:45:51;5.40;99.90
23471;DHT22;11908;50.806;4.424;2024-01-11T11:51:09;5.60;99.90
23471;DHT22;11908;50.806;4.424;2024-01-11T11:53:39;5.90;99.90
23471;DHT22;11908;50.806;4.424;2024-01-11T11:56:06;6.60;99.90
23471;DHT22;11908;50.806;4.424;2024-01-11T11:58:33;7.10;99.90
23471;DHT22;11908;50.806;4.424;2024-01-11T12:01:00;6.60;99.90
23471;DHT22;11908;50.806;4.424;2024-01-11T12:03:35;6.70;99.90
23471;DHT22;11908;50.806;4.424;2024-01-11T12:06:05;6.20;99.90
23471;DHT22;11908;50.806;4.424;2024-01-11T12:08:31;5.80;99.90
23471;DHT22;11908;50.806;4.424;2024-01-11T12:10:57;6.10;99.90
23471;DHT22;11908;50.806;4.424;2024-01-11T12:13:24;6.00;99.90
23471;DHT22;11908;50.806;4.424;2024-01-11T12:15:50;5.50;99.90
23471;DHT22;11908;50.806;4.424;2024-01-11T12:18:16;4.90;99.90
23471;DHT22;11908;50.806;4.424;2024-01-11T12:20:42;4.40;99.90
23471;DHT22;11908;50.806;4.424;2024-01-11T12:23:08;4.60;99.90
23471;DHT22;11908;50.806;4.424;2024-01-11T12:25:34;3.90;99.90
23471;DHT22;11908;50.806;4.424;2024-01-11T12:28:00;3.00;99.90
23471;DHT22;11908;50.806;4.424;2024-01-11T12:30:26;2.70;99.90
23471;DHT22;11908;50.806;4.424;2024-01-11T12:32:53;2.70;99.90
23471;DHT22;11908;50.806;4.424;2024-01-11T12:35:20;2.30;99.90
23471;DHT22;11908;50.806;4.424;2024-01-11T12:38:02;2.20;99.90
23471;DHT22;11908;50.806;4.424;2024-01-11T12:40:35;2.20;99.90
23471;DHT22;11908;50.806;4.424;2024-01-11T12:43:03;2.10;99.90
23471;DHT22;11908;50.806;4.424;2024-01-11T12:45:29;2.10;99.90
23471;DHT22;11908;50.806;4.424;2024-01-11T12:48:01;1.90;99.90
23471;DHT22;11908;50.806;4.424;2024-01-11T12:50:29;1.80;99.90
23471;DHT22;11908;50.806;4.424;2024-01-11T12:53:18;1.50;99.90
23471;DHT22;11908;50.806;4.424;2024-01-11T12:56:05;1.50;99.90
23471;DHT22;11908;50.806;4.424;2024-01-11T12:58:36;1.60;99.90
23471;DHT22;11908;50.806;4.424;2024-01-11T13:01:02;1.60;99.90
23471;DHT22;11908;50.806;4.424;2024-01-11T13:03:28;1.50;99.90
23471;DHT22;11908;50.806;4.424;2024-01-11T13:05:54;1.40;99.90
23471;DHT22;11908;50.806;4.424;2024-01-11T13:08:20;1.40;99.90
23471;DHT22;11908;50.806;4.424;2024-01-11T13:10:45;1.20;99.90
23471;DHT22;11908;50.806;4.424;2024-01-11T13:13:13;1.20;99.90
23471;DHT22;11908;50.806;4.424;2024-01-11T13:15:39;1.30;99.90
23471;DHT22;11908;50.806;4.424;2024-01-11T13:18:05;1.30;99.90
23471;DHT22;11908;50.806;4.424;2024-01-11T13:20:31;1.20;99.90
23471;DHT22;11908;50.806;4.424;2024-01-11T13:23:17;1.30;99.90
23471;DHT22;11908;50.806;4.424;2024-01-11T13:25:48;1.20;99.90
23471;DHT22;11908;50.806;4.424;2024-01-11T13:28:17;1.20;99.90
23471;DHT22;11908;50.806;4.424;2024-01-11T13:30:44;1.30;99.90
23471;DHT22;11908;50.806;4.424;2024-01-11T13:33:11;1.20;99.90
23471;DHT22;11908;50.806;4.424;2024-01-11T13:35:37;1.20;99.90
23471;DHT22;11908;50.806;4.424;2024-01-11T13:38:04;1.20;99.90
23471;DHT22;11908;50.806;4.424;2024-01-11T13:40:30;1.20;99.90
23471;DHT22;11908;50.806;4.424;2024-01-11T13:42:57;1.30;99.90
23471;DHT22;11908;50.806;4.424;2024-01-11T13:45:23;1.50;99.90
23471;DHT22;11908;50.806;4.424;2024-01-11T13:47:49;1.50;99.90
23471;DHT22;11908;50.806;4.424;2024-01-11T13:50:15;1.60;99.90
23471;DHT22;11908;50.806;4.424;2024-01-11T13:52:42;1.40;99.90
23471;DHT22;11908;50.806;4.424;2024-01-11T13:55:08;1.40;99.90
23471;DHT22;11908;50.806;4.424;2024-01-11T13:57:36;1.30;99.90
23471;DHT22;11908;50.806;4.424;2024-01-11T14:00:05;1.30;99.90
23471;DHT22;11908;50.806;4.424;2024-01-11T14:02:32;1.40;99.90
23471;DHT22;11908;50.806;4.424;2024-01-11T14:04:59;1.40;99.90
23471;DHT22;11908;50.806;4.424;2024-01-11T14:07:24;1.40;99.90
23471;DHT22;11908;50.806;4.424;2024-01-11T14:09:51;1.50;99.90
23471;DHT22;11908;50.806;4.424;2024-01-11T14:12:16;1.50;99.90
23471;DHT22;11908;50.806;4.424;2024-01-11T14:14:43;1.40;99.90
23471;DHT22;11908;50.806;4.424;2024-01-11T14:17:09;1.40;99.90
23471;DHT22;11908;50.806;4.424;2024-01-11T14:19:35;1.50;99.90
23471;DHT22;11908;50.806;4.424;2024-01-11T14:22:00;1.50;99.90
23471;DHT22;11908;50.806;4.424;2024-01-11T14:24:26;1.50;99.90
23471;DHT22;11908;50.806;4.424;2024-01-11T14:26:52;1.60;99.90
23471;DHT22;11908;50.806;4.424;2024-01-11T14:29:18;1.60;99.90
23471;DHT22;11908;50.806;4.424;2024-01-11T14:31:43;1.60;99.90
23471;DHT22;11908;50.806;4.424;2024-01-11T14:34:10;1.60;99.90
23471;DHT22;11908;50.806;4.424;2024-01-11T14:36:36;1.50;99.90
23471;DHT22;11908;50.806;4.424;2024-01-11T14:39:02;1.50;99.90
23471;DHT22;11908;50.806;4.424;2024-01-11T14:41:33;1.50;99.90
23471;DHT22;11908;50.806;4.424;2024-01-11T14:43:59;1.50;99.90
23471;DHT22;11908;50.806;4.424;2024-01-11T14:46:26;1.50;99.90
23471;DHT22;11908;50.806;4.424;2024-01-11T14:48:51;1.40;99.90
23471;DHT22;11908;50.806;4.424;2024-01-11T14:51:17;1.40;99.90
23471;DHT22;11908;50.806;4.424;2024-01-11T14:53:43;1.30;99.90
23471;DHT22;11908;50.806;4.424;2024-01-11T14:56:09;1.40;99.90
23471;DHT22;11908;50.806;4.424;2024-01-11T14:58:36;1.50;99.90
23471;DHT22;11908;50.806;4.424;2024-01-11T15:01:02;1.40;99.90
23471;DHT22;11908;50.806;4.424;2024-01-11T15:03:29;1.30;99.90
23471;DHT22;11908;50.806;4.424;2024-01-11T15:05:55;1.30;99.90
23471;DHT22;11908;50.806;4.424;2024-01-11T15:08:21;1.30;99.90
23471;DHT22;11908;50.806;4.424;2024-01-11T15:10:47;1.40;99.90
23471;DHT22;11908;50.806;4.424;2024-01-11T15:13:13;1.40;99.90
23471;DHT22;11908;50.806;4.424;2024-01-11T15:15:38;1.40;99.90
23471;DHT22;11908;50.806;4.424;2024-01-11T15:18:05;1.40;99.90
23471;DHT22;11908;50.806;4.424;2024-01-11T15:20:30;1.30;99.90
23471;DHT22;11908;50.806;4.424;2024-01-11T15:22:56;1.30;99.90
23471;DHT22;11908;50.806;4.424;2024-01-11T15:25:22;1.30;99.90
23471;DHT22;11908;50.806;4.424;2024-01-11T15:27:49;1.40;99.90
23471;DHT22;11908;50.806;4.424;2024-01-11T15:30:16;1.20;99.90
23471;DHT22;11908;50.806;4.424;2024-01-11T15:32:43;1.30;99.90
23471;DHT22;11908;50.806;4.424;2024-01-11T15:35:08;1.10;99.90
23471;DHT22;11908;50.806;4.424;2024-01-11T15:37:34;1.10;99.90
23471;DHT22;11908;50.806;4.424;2024-01-11T15:40:01;0.90;99.90